This is the latest recevied weather packets stored in our database for station/object AD7ZD. If no packets are shown the sender has not sent any weather packets the latest 10 day(s).
| Time | Temp. | Humidity | Pressure | Rain* | Wind** | Luminosity | Snow |
|---|---|---|---|---|---|---|---|
| 1778100998 | 22.22° C | 29% | 1017.8 hPa | 0 mm | - | 767 W/m² | - |
| 1778100692 | 23.89° C | 27% | 1017.8 hPa | 0 mm | - | 735 W/m² | - |
| 1778100391 | 23.33° C | 27% | 1017.8 hPa | 0 mm | - | 744 W/m² | - |
| 1778100087 | 22.78° C | 28% | 1017.8 hPa | 0 mm | - | 772 W/m² | - |
| 1778099786 | 22.22° C | 29% | 1018.2 hPa | 0 mm | - | 790 W/m² | - |
| 1778099482 | 22.78° C | 29% | 1017.9 hPa | 0 mm | - | 766 W/m² | - |
| 1778099180 | 22.78° C | 28% | 1017.8 hPa | 0 mm | - | 750 W/m² | - |
| 1778098876 | 22.22° C | 29% | 1017.8 hPa | 0 mm | - | 733 W/m² | - |
| 1778098573 | 22.22° C | 31% | 1017.9 hPa | 0 mm | - | 743 W/m² | - |
| 1778098270 | 21.67° C | 32% | 1017.9 hPa | 0 mm | - | 750 W/m² | - |
| 1778097966 | 22.78° C | 31% | 1018 hPa | 0 mm | - | 662 W/m² | - |
| 1778097663 | 21.67° C | 32% | 1017.9 hPa | 0 mm | - | 771 W/m² | - |
| 1778097360 | 22.22° C | 33% | 1018.3 hPa | 0 mm | - | 790 W/m² | - |
| 1778097056 | 21.67° C | 32% | 1018.2 hPa | 0 mm | - | 777 W/m² | - |
| 1778096754 | 22.22° C | 32% | 1018.4 hPa | 0 mm | - | 714 W/m² | - |
| 1778096450 | 21.11° C | 32% | 1018.2 hPa | 0 mm | - | 777 W/m² | - |
| 1778096148 | 21.67° C | 33% | 1018.2 hPa | 0 mm | - | 711 W/m² | - |
| 1778095845 | 21.11° C | 33% | 1018.2 hPa | 0 mm | - | 714 W/m² | - |
| 1778095542 | 21.67° C | 33% | 1018.2 hPa | 0 mm | - | 765 W/m² | - |
| 1778095237 | 21.11° C | 34% | 1018.4 hPa | 0 mm | - | 814 W/m² | - |
| 1778094934 | 20.56° C | 34% | 1018.5 hPa | 0 mm | - | 828 W/m² | - |
| 1778094630 | 21.67° C | 34% | 1018.3 hPa | 0 mm | - | 799 W/m² | - |
| 1778094328 | 21.11° C | 35% | 1018.7 hPa | 0 mm | - | 776 W/m² | - |
| 1778094025 | 20.56° C | 35% | 1018.4 hPa | 0 mm | - | 783 W/m² | - |
| 1778093722 | 21.11° C | 37% | 1018.5 hPa | 0 mm | - | 817 W/m² | - |
* Rain latest hour (hover to see other rain measurements)
** Current wind speed in m/s (hover to see current wind gust speed)